sensor_id;sensor_type;location;lat;lon;timestamp;P1;durP1;ratioP1;P2;durP2;ratioP2
32906;SDS011;19259;51.590;5.320;2022-12-10T00:01:28;82.55;;;27.45;;
32906;SDS011;19259;51.590;5.320;2022-12-10T00:03:58;83.33;;;27.65;;
32906;SDS011;19259;51.590;5.320;2022-12-10T00:06:27;82.10;;;26.80;;
32906;SDS011;19259;51.590;5.320;2022-12-10T00:08:56;76.60;;;26.97;;
32906;SDS011;19259;51.590;5.320;2022-12-10T00:11:25;84.22;;;27.75;;
32906;SDS011;19259;51.590;5.320;2022-12-10T00:13:54;89.15;;;26.93;;
32906;SDS011;19259;51.590;5.320;2022-12-10T00:16:23;88.95;;;29.50;;
32906;SDS011;19259;51.590;5.320;2022-12-10T00:18:52;91.37;;;30.12;;
32906;SDS011;19259;51.590;5.320;2022-12-10T00:21:22;97.80;;;28.27;;
32906;SDS011;19259;51.590;5.320;2022-12-10T00:23:51;91.15;;;28.80;;
32906;SDS011;19259;51.590;5.320;2022-12-10T00:26:21;93.52;;;28.95;;
32906;SDS011;19259;51.590;5.320;2022-12-10T00:28:52;85.45;;;26.62;;
32906;SDS011;19259;51.590;5.320;2022-12-10T00:31:23;86.75;;;28.35;;
32906;SDS011;19259;51.590;5.320;2022-12-10T00:33:59;95.17;;;29.18;;
32906;SDS011;19259;51.590;5.320;2022-12-10T00:36:32;90.55;;;27.27;;
32906;SDS011;19259;51.590;5.320;2022-12-10T00:38:59;89.28;;;28.75;;
32906;SDS011;19259;51.590;5.320;2022-12-10T00:41:27;93.78;;;29.27;;
32906;SDS011;19259;51.590;5.320;2022-12-10T00:43:55;105.72;;;29.30;;
32906;SDS011;19259;51.590;5.320;2022-12-10T00:46:24;97.70;;;28.95;;
32906;SDS011;19259;51.590;5.320;2022-12-10T00:48:52;77.20;;;27.32;;
32906;SDS011;19259;51.590;5.320;2022-12-10T00:51:20;85.77;;;26.35;;
32906;SDS011;19259;51.590;5.320;2022-12-10T00:53:50;92.60;;;28.57;;
32906;SDS011;19259;51.590;5.320;2022-12-10T00:56:20;85.53;;;28.10;;
32906;SDS011;19259;51.590;5.320;2022-12-10T00:58:49;95.15;;;28.77;;
32906;SDS011;19259;51.590;5.320;2022-12-10T01:01:22;87.12;;;27.93;;
32906;SDS011;19259;51.590;5.320;2022-12-10T01:03:53;84.00;;;28.42;;
32906;SDS011;19259;51.590;5.320;2022-12-10T01:06:26;86.80;;;28.52;;
32906;SDS011;19259;51.590;5.320;2022-12-10T01:08:57;92.45;;;27.85;;
32906;SDS011;19259;51.590;5.320;2022-12-10T01:11:29;85.77;;;28.67;;
32906;SDS011;19259;51.590;5.320;2022-12-10T01:13:57;87.80;;;28.73;;
32906;SDS011;19259;51.590;5.320;2022-12-10T01:16:25;93.33;;;28.80;;
32906;SDS011;19259;51.590;5.320;2022-12-10T01:18:54;77.75;;;27.17;;
32906;SDS011;19259;51.590;5.320;2022-12-10T01:21:24;86.22;;;29.12;;
32906;SDS011;19259;51.590;5.320;2022-12-10T01:23:53;76.57;;;27.13;;
32906;SDS011;19259;51.590;5.320;2022-12-10T01:26:23;83.90;;;28.23;;
32906;SDS011;19259;51.590;5.320;2022-12-10T01:28:55;86.60;;;28.90;;
32906;SDS011;19259;51.590;5.320;2022-12-10T01:31:24;80.72;;;28.30;;
32906;SDS011;19259;51.590;5.320;2022-12-10T01:33:56;78.02;;;26.93;;
32906;SDS011;19259;51.590;5.320;2022-12-10T01:36:26;84.17;;;28.15;;
32906;SDS011;19259;51.590;5.320;2022-12-10T01:38:55;89.05;;;28.83;;
32906;SDS011;19259;51.590;5.320;2022-12-10T01:41:28;92.15;;;29.52;;
32906;SDS011;19259;51.590;5.320;2022-12-10T01:46:26;83.58;;;26.93;;
32906;SDS011;19259;51.590;5.320;2022-12-10T01:48:55;94.32;;;28.52;;
32906;SDS011;19259;51.590;5.320;2022-12-10T01:51:26;91.50;;;29.57;;
32906;SDS011;19259;51.590;5.320;2022-12-10T01:53:55;81.75;;;28.27;;
32906;SDS011;19259;51.590;5.320;2022-12-10T01:56:23;91.37;;;29.48;;
32906;SDS011;19259;51.590;5.320;2022-12-10T01:58:55;91.72;;;29.05;;
32906;SDS011;19259;51.590;5.320;2022-12-10T02:01:28;81.85;;;28.25;;
32906;SDS011;19259;51.590;5.320;2022-12-10T02:09:04;82.72;;;28.00;;
32906;SDS011;19259;51.590;5.320;2022-12-10T02:14:09;92.15;;;28.10;;
32906;SDS011;19259;51.590;5.320;2022-12-10T02:17:01;85.72;;;29.82;;
32906;SDS011;19259;51.590;5.320;2022-12-10T02:19:38;100.35;;;31.40;;
32906;SDS011;19259;51.590;5.320;2022-12-10T02:22:03;99.35;;;30.55;;
32906;SDS011;19259;51.590;5.320;2022-12-10T02:24:34;98.87;;;31.27;;
32906;SDS011;19259;51.590;5.320;2022-12-10T02:27:06;100.87;;;28.65;;
32906;SDS011;19259;51.590;5.320;2022-12-10T02:29:35;105.58;;;30.70;;
32906;SDS011;19259;51.590;5.320;2022-12-10T02:32:04;106.45;;;32.28;;
32906;SDS011;19259;51.590;5.320;2022-12-10T02:34:48;88.87;;;29.50;;
32906;SDS011;19259;51.590;5.320;2022-12-10T02:39:43;97.90;;;27.22;;
32906;SDS011;19259;51.590;5.320;2022-12-10T02:42:12;86.78;;;27.62;;
32906;SDS011;19259;51.590;5.320;2022-12-10T02:44:43;90.17;;;26.87;;
32906;SDS011;19259;51.590;5.320;2022-12-10T02:47:15;80.40;;;27.07;;
32906;SDS011;19259;51.590;5.320;2022-12-10T02:49:43;88.40;;;26.40;;
32906;SDS011;19259;51.590;5.320;2022-12-10T02:52:14;99.40;;;27.73;;
32906;SDS011;19259;51.590;5.320;2022-12-10T02:54:47;92.17;;;27.02;;
32906;SDS011;19259;51.590;5.320;2022-12-10T03:08:12;83.05;;;25.43;;
32906;SDS011;19259;51.590;5.320;2022-12-10T03:11:00;96.25;;;29.18;;
32906;SDS011;19259;51.590;5.320;2022-12-10T03:13:33;88.82;;;27.45;;
32906;SDS011;19259;51.590;5.320;2022-12-10T03:16:03;94.03;;;27.73;;
32906;SDS011;19259;51.590;5.320;2022-12-10T03:18:32;90.57;;;30.35;;
32906;SDS011;19259;51.590;5.320;2022-12-10T03:21:04;100.35;;;27.98;;
32906;SDS011;19259;51.590;5.320;2022-12-10T03:23:35;90.47;;;28.75;;
32906;SDS011;19259;51.590;5.320;2022-12-10T03:26:04;89.30;;;29.72;;
32906;SDS011;19259;51.590;5.320;2022-12-10T03:28:34;88.67;;;26.50;;
32906;SDS011;19259;51.590;5.320;2022-12-10T03:31:03;103.17;;;29.30;;
32906;SDS011;19259;51.590;5.320;2022-12-10T03:33:33;104.45;;;28.67;;
32906;SDS011;19259;51.590;5.320;2022-12-10T03:36:00;101.85;;;28.25;;
32906;SDS011;19259;51.590;5.320;2022-12-10T03:38:29;114.03;;;32.67;;
32906;SDS011;19259;51.590;5.320;2022-12-10T03:40:56;117.82;;;31.37;;
32906;SDS011;19259;51.590;5.320;2022-12-10T03:43:24;109.10;;;29.40;;
32906;SDS011;19259;51.590;5.320;2022-12-10T03:45:54;109.87;;;30.85;;
32906;SDS011;19259;51.590;5.320;2022-12-10T03:48:21;109.80;;;30.27;;
32906;SDS011;19259;51.590;5.320;2022-12-10T03:50:49;106.20;;;30.85;;
32906;SDS011;19259;51.590;5.320;2022-12-10T03:53:16;111.50;;;29.98;;
32906;SDS011;19259;51.590;5.320;2022-12-10T03:55:44;104.20;;;30.37;;
32906;SDS011;19259;51.590;5.320;2022-12-10T03:58:11;117.80;;;33.33;;
32906;SDS011;19259;51.590;5.320;2022-12-10T04:00:42;105.70;;;30.70;;
32906;SDS011;19259;51.590;5.320;2022-12-10T04:03:09;109.45;;;29.72;;
32906;SDS011;19259;51.590;5.320;2022-12-10T04:05:37;107.45;;;32.42;;
32906;SDS011;19259;51.590;5.320;2022-12-10T04:08:04;116.15;;;33.45;;
32906;SDS011;19259;51.590;5.320;2022-12-10T04:10:36;115.67;;;31.37;;
32906;SDS011;19259;51.590;5.320;2022-12-10T04:13:04;117.25;;;31.93;;
32906;SDS011;19259;51.590;5.320;2022-12-10T04:15:49;106.07;;;31.85;;
32906;SDS011;19259;51.590;5.320;2022-12-10T04:18:34;113.40;;;32.10;;
32906;SDS011;19259;51.590;5.320;2022-12-10T04:21:02;116.10;;;33.73;;
32906;SDS011;19259;51.590;5.320;2022-12-10T04:23:48;129.32;;;33.63;;
32906;SDS011;19259;51.590;5.320;2022-12-10T04:26:33;115.40;;;31.35;;
32906;SDS011;19259;51.590;5.320;2022-12-10T04:29:21;123.42;;;34.05;;
32906;SDS011;19259;51.590;5.320;2022-12-10T04:31:49;126.35;;;33.20;;
32906;SDS011;19259;51.590;5.320;2022-12-10T04:34:17;121.75;;;33.73;;
32906;SDS011;19259;51.590;5.320;2022-12-10T04:36:45;111.70;;;31.70;;
32906;SDS011;19259;51.590;5.320;2022-12-10T04:39:13;118.85;;;31.15;;
32906;SDS011;19259;51.590;5.320;2022-12-10T04:41:42;124.12;;;33.33;;
32906;SDS011;19259;51.590;5.320;2022-12-10T04:44:11;124.62;;;32.28;;
32906;SDS011;19259;51.590;5.320;2022-12-10T04:46:39;113.08;;;33.30;;
32906;SDS011;19259;51.590;5.320;2022-12-10T04:49:07;117.95;;;31.33;;
32906;SDS011;19259;51.590;5.320;2022-12-10T04:51:34;124.85;;;33.02;;
32906;SDS011;19259;51.590;5.320;2022-12-10T04:54:03;110.03;;;30.40;;
32906;SDS011;19259;51.590;5.320;2022-12-10T04:56:31;117.30;;;32.35;;
32906;SDS011;19259;51.590;5.320;2022-12-10T04:58:59;109.48;;;29.40;;
32906;SDS011;19259;51.590;5.320;2022-12-10T05:01:27;124.00;;;31.55;;
32906;SDS011;19259;51.590;5.320;2022-12-10T05:03:58;116.93;;;32.88;;
32906;SDS011;19259;51.590;5.320;2022-12-10T05:06:26;127.90;;;32.33;;
32906;SDS011;19259;51.590;5.320;2022-12-10T05:08:54;120.28;;;33.23;;
32906;SDS011;19259;51.590;5.320;2022-12-10T05:11:22;112.37;;;31.33;;
32906;SDS011;19259;51.590;5.320;2022-12-10T05:13:56;130.95;;;33.18;;
32906;SDS011;19259;51.590;5.320;2022-12-10T05:16:21;119.55;;;32.83;;
32906;SDS011;19259;51.590;5.320;2022-12-10T05:18:50;124.97;;;33.70;;
32906;SDS011;19259;51.590;5.320;2022-12-10T05:21:19;120.22;;;31.70;;
32906;SDS011;19259;51.590;5.320;2022-12-10T05:23:49;133.65;;;36.28;;
32906;SDS011;19259;51.590;5.320;2022-12-10T05:26:23;112.92;;;33.28;;
32906;SDS011;19259;51.590;5.320;2022-12-10T05:28:52;126.75;;;33.78;;
32906;SDS011;19259;51.590;5.320;2022-12-10T05:31:22;130.80;;;34.73;;
32906;SDS011;19259;51.590;5.320;2022-12-10T05:33:52;135.50;;;37.70;;
32906;SDS011;19259;51.590;5.320;2022-12-10T05:36:21;135.57;;;38.78;;
32906;SDS011;19259;51.590;5.320;2022-12-10T05:38:50;132.30;;;34.48;;
32906;SDS011;19259;51.590;5.320;2022-12-10T05:41:22;149.53;;;36.90;;
32906;SDS011;19259;51.590;5.320;2022-12-10T05:43:53;132.25;;;34.70;;
32906;SDS011;19259;51.590;5.320;2022-12-10T05:46:24;142.50;;;35.40;;
32906;SDS011;19259;51.590;5.320;2022-12-10T05:48:55;139.72;;;38.38;;
32906;SDS011;19259;51.590;5.320;2022-12-10T05:51:24;145.65;;;37.42;;
32906;SDS011;19259;51.590;5.320;2022-12-10T05:53:54;152.65;;;36.00;;
32906;SDS011;19259;51.590;5.320;2022-12-10T05:56:24;132.45;;;36.85;;
32906;SDS011;19259;51.590;5.320;2022-12-10T05:58:56;144.62;;;34.90;;
32906;SDS011;19259;51.590;5.320;2022-12-10T06:03:56;145.22;;;34.38;;
32906;SDS011;19259;51.590;5.320;2022-12-10T06:06:29;149.60;;;38.08;;
32906;SDS011;19259;51.590;5.320;2022-12-10T06:09:01;150.75;;;35.65;;
32906;SDS011;19259;51.590;5.320;2022-12-10T06:11:27;149.02;;;36.33;;
32906;SDS011;19259;51.590;5.320;2022-12-10T06:13:58;132.05;;;34.95;;
32906;SDS011;19259;51.590;5.320;2022-12-10T06:16:27;133.40;;;34.45;;
32906;SDS011;19259;51.590;5.320;2022-12-10T06:18:56;138.88;;;36.75;;
32906;SDS011;19259;51.590;5.320;2022-12-10T06:21:27;134.57;;;33.33;;
32906;SDS011;19259;51.590;5.320;2022-12-10T06:23:55;134.67;;;34.25;;
32906;SDS011;19259;51.590;5.320;2022-12-10T06:26:23;137.77;;;32.33;;
32906;SDS011;19259;51.590;5.320;2022-12-10T06:28:52;144.68;;;34.53;;
32906;SDS011;19259;51.590;5.320;2022-12-10T06:31:20;136.05;;;33.98;;
32906;SDS011;19259;51.590;5.320;2022-12-10T06:33:48;137.80;;;33.83;;
32906;SDS011;19259;51.590;5.320;2022-12-10T06:36:18;139.55;;;33.55;;
32906;SDS011;19259;51.590;5.320;2022-12-10T06:38:46;147.53;;;34.80;;
32906;SDS011;19259;51.590;5.320;2022-12-10T06:41:15;149.38;;;34.43;;
32906;SDS011;19259;51.590;5.320;2022-12-10T06:43:44;131.05;;;33.23;;
32906;SDS011;19259;51.590;5.320;2022-12-10T06:46:12;141.18;;;35.58;;
32906;SDS011;19259;51.590;5.320;2022-12-10T06:48:41;137.65;;;33.20;;
32906;SDS011;19259;51.590;5.320;2022-12-10T06:51:10;129.27;;;34.00;;
32906;SDS011;19259;51.590;5.320;2022-12-10T06:53:39;135.18;;;31.17;;
32906;SDS011;19259;51.590;5.320;2022-12-10T06:56:08;129.00;;;30.92;;
32906;SDS011;19259;51.590;5.320;2022-12-10T07:01:17;124.12;;;30.75;;
32906;SDS011;19259;51.590;5.320;2022-12-10T07:03:47;129.70;;;31.30;;
32906;SDS011;19259;51.590;5.320;2022-12-10T07:06:16;145.40;;;35.15;;
32906;SDS011;19259;51.590;5.320;2022-12-10T07:08:45;143.75;;;35.35;;
32906;SDS011;19259;51.590;5.320;2022-12-10T07:11:16;136.25;;;32.80;;
32906;SDS011;19259;51.590;5.320;2022-12-10T07:13:43;141.03;;;35.90;;
32906;SDS011;19259;51.590;5.320;2022-12-10T07:16:15;137.10;;;34.38;;
32906;SDS011;19259;51.590;5.320;2022-12-10T07:18:44;139.35;;;34.83;;
32906;SDS011;19259;51.590;5.320;2022-12-10T07:21:23;146.72;;;33.20;;
32906;SDS011;19259;51.590;5.320;2022-12-10T07:23:50;131.78;;;32.95;;
32906;SDS011;19259;51.590;5.320;2022-12-10T07:26:19;142.82;;;32.35;;
32906;SDS011;19259;51.590;5.320;2022-12-10T07:28:47;131.18;;;32.95;;
32906;SDS011;19259;51.590;5.320;2022-12-10T07:31:15;140.60;;;32.80;;
32906;SDS011;19259;51.590;5.320;2022-12-10T07:33:42;137.90;;;33.08;;
32906;SDS011;19259;51.590;5.320;2022-12-10T07:36:10;118.28;;;31.95;;
32906;SDS011;19259;51.590;5.320;2022-12-10T07:38:40;132.72;;;33.42;;
32906;SDS011;19259;51.590;5.320;2022-12-10T07:41:08;124.15;;;33.67;;
32906;SDS011;19259;51.590;5.320;2022-12-10T07:43:38;125.92;;;34.45;;
32906;SDS011;19259;51.590;5.320;2022-12-10T07:46:18;127.00;;;39.03;;
32906;SDS011;19259;51.590;5.320;2022-12-10T07:48:47;132.57;;;33.20;;
32906;SDS011;19259;51.590;5.320;2022-12-10T07:51:16;124.12;;;31.73;;
32906;SDS011;19259;51.590;5.320;2022-12-10T07:53:47;116.22;;;31.20;;
32906;SDS011;19259;51.590;5.320;2022-12-10T07:56:16;128.53;;;30.35;;
32906;SDS011;19259;51.590;5.320;2022-12-10T07:58:45;130.27;;;30.92;;
32906;SDS011;19259;51.590;5.320;2022-12-10T08:01:13;141.55;;;30.55;;
32906;SDS011;19259;51.590;5.320;2022-12-10T08:03:43;119.67;;;29.77;;
32906;SDS011;19259;51.590;5.320;2022-12-10T08:06:17;119.47;;;27.02;;
32906;SDS011;19259;51.590;5.320;2022-12-10T08:08:41;141.57;;;27.55;;
32906;SDS011;19259;51.590;5.320;2022-12-10T08:11:10;134.57;;;30.17;;
32906;SDS011;19259;51.590;5.320;2022-12-10T08:13:39;124.82;;;29.87;;
32906;SDS011;19259;51.590;5.320;2022-12-10T08:16:10;127.90;;;28.23;;
32906;SDS011;19259;51.590;5.320;2022-12-10T08:18:40;114.67;;;29.20;;
32906;SDS011;19259;51.590;5.320;2022-12-10T08:21:13;127.32;;;26.62;;
32906;SDS011;19259;51.590;5.320;2022-12-10T08:26:14;116.40;;;28.83;;
32906;SDS011;19259;51.590;5.320;2022-12-10T08:28:43;103.47;;;27.13;;
32906;SDS011;19259;51.590;5.320;2022-12-10T08:31:12;106.52;;;28.10;;
32906;SDS011;19259;51.590;5.320;2022-12-10T08:33:41;100.53;;;28.02;;
32906;SDS011;19259;51.590;5.320;2022-12-10T08:36:10;113.00;;;29.92;;
32906;SDS011;19259;51.590;5.320;2022-12-10T08:38:39;120.50;;;28.23;;
32906;SDS011;19259;51.590;5.320;2022-12-10T08:41:08;99.00;;;25.48;;
32906;SDS011;19259;51.590;5.320;2022-12-10T08:43:37;101.85;;;25.88;;
32906;SDS011;19259;51.590;5.320;2022-12-10T08:46:05;95.53;;;26.12;;
32906;SDS011;19259;51.590;5.320;2022-12-10T08:48:34;102.70;;;29.70;;
32906;SDS011;19259;51.590;5.320;2022-12-10T08:51:02;99.20;;;26.40;;
32906;SDS011;19259;51.590;5.320;2022-12-10T08:53:31;91.90;;;26.42;;
32906;SDS011;19259;51.590;5.320;2022-12-10T08:55:59;95.87;;;25.77;;
32906;SDS011;19259;51.590;5.320;2022-12-10T08:58:27;98.03;;;27.85;;
32906;SDS011;19259;51.590;5.320;2022-12-10T09:00:55;99.55;;;25.32;;
32906;SDS011;19259;51.590;5.320;2022-12-10T09:03:23;105.00;;;27.45;;
32906;SDS011;19259;51.590;5.320;2022-12-10T09:05:50;91.72;;;25.20;;
32906;SDS011;19259;51.590;5.320;2022-12-10T09:08:20;90.57;;;25.35;;
32906;SDS011;19259;51.590;5.320;2022-12-10T09:10:48;98.58;;;25.70;;
32906;SDS011;19259;51.590;5.320;2022-12-10T09:13:15;106.43;;;25.97;;
32906;SDS011;19259;51.590;5.320;2022-12-10T09:15:48;88.52;;;23.83;;
32906;SDS011;19259;51.590;5.320;2022-12-10T09:18:16;78.65;;;24.10;;
32906;SDS011;19259;51.590;5.320;2022-12-10T09:20:44;86.78;;;24.37;;
32906;SDS011;19259;51.590;5.320;2022-12-10T09:23:11;94.67;;;25.08;;
32906;SDS011;19259;51.590;5.320;2022-12-10T09:25:39;93.82;;;23.55;;
32906;SDS011;19259;51.590;5.320;2022-12-10T09:28:07;96.92;;;26.45;;
32906;SDS011;19259;51.590;5.320;2022-12-10T09:30:34;91.12;;;26.73;;
32906;SDS011;19259;51.590;5.320;2022-12-10T09:33:02;87.57;;;25.70;;
32906;SDS011;19259;51.590;5.320;2022-12-10T09:35:29;82.75;;;24.57;;
32906;SDS011;19259;51.590;5.320;2022-12-10T09:37:57;96.95;;;24.45;;
32906;SDS011;19259;51.590;5.320;2022-12-10T09:40:32;112.50;;;26.80;;
32906;SDS011;19259;51.590;5.320;2022-12-10T09:46:10;99.67;;;25.62;;
32906;SDS011;19259;51.590;5.320;2022-12-10T09:48:51;105.72;;;27.85;;
32906;SDS011;19259;51.590;5.320;2022-12-10T09:51:36;95.62;;;26.37;;
32906;SDS011;19259;51.590;5.320;2022-12-10T09:54:11;91.05;;;26.17;;
32906;SDS011;19259;51.590;5.320;2022-12-10T09:56:38;88.75;;;26.45;;
32906;SDS011;19259;51.590;5.320;2022-12-10T09:59:51;95.10;;;25.20;;
32906;SDS011;19259;51.590;5.320;2022-12-10T10:01:48;99.30;;;26.90;;
32906;SDS011;19259;51.590;5.320;2022-12-10T10:04:18;95.85;;;26.68;;
32906;SDS011;19259;51.590;5.320;2022-12-10T10:06:49;89.13;;;25.80;;
32906;SDS011;19259;51.590;5.320;2022-12-10T10:09:19;86.42;;;23.62;;
32906;SDS011;19259;51.590;5.320;2022-12-10T10:11:48;95.22;;;25.57;;
32906;SDS011;19259;51.590;5.320;2022-12-10T10:14:19;94.52;;;25.43;;
32906;SDS011;19259;51.590;5.320;2022-12-10T10:16:57;100.05;;;23.45;;
32906;SDS011;19259;51.590;5.320;2022-12-10T10:19:31;87.50;;;24.27;;
32906;SDS011;19259;51.590;5.320;2022-12-10T10:22:02;79.05;;;23.32;;
32906;SDS011;19259;51.590;5.320;2022-12-10T10:24:35;94.92;;;24.63;;
32906;SDS011;19259;51.590;5.320;2022-12-10T10:27:14;78.25;;;21.85;;
32906;SDS011;19259;51.590;5.320;2022-12-10T10:29:48;85.05;;;22.60;;
32906;SDS011;19259;51.590;5.320;2022-12-10T10:32:19;93.25;;;24.20;;
32906;SDS011;19259;51.590;5.320;2022-12-10T10:34:53;76.90;;;22.20;;
32906;SDS011;19259;51.590;5.320;2022-12-10T10:37:27;79.90;;;23.87;;
32906;SDS011;19259;51.590;5.320;2022-12-10T10:39:56;83.62;;;23.60;;
32906;SDS011;19259;51.590;5.320;2022-12-10T10:42:32;94.22;;;24.80;;
32906;SDS011;19259;51.590;5.320;2022-12-10T10:48:05;86.70;;;22.62;;
32906;SDS011;19259;51.590;5.320;2022-12-10T10:50:42;81.95;;;22.20;;
32906;SDS011;19259;51.590;5.320;2022-12-10T10:53:25;92.88;;;24.75;;
32906;SDS011;19259;51.590;5.320;2022-12-10T10:56:07;93.87;;;24.60;;
32906;SDS011;19259;51.590;5.320;2022-12-10T10:58:34;98.20;;;25.23;;
32906;SDS011;19259;51.590;5.320;2022-12-10T11:01:06;94.22;;;25.43;;
32906;SDS011;19259;51.590;5.320;2022-12-10T11:03:34;79.32;;;23.32;;
32906;SDS011;19259;51.590;5.320;2022-12-10T11:06:05;77.65;;;23.00;;
32906;SDS011;19259;51.590;5.320;2022-12-10T11:08:34;76.67;;;23.20;;
32906;SDS011;19259;51.590;5.320;2022-12-10T11:11:10;73.40;;;23.57;;
32906;SDS011;19259;51.590;5.320;2022-12-10T11:16:11;63.25;;;20.88;;
32906;SDS011;19259;51.590;5.320;2022-12-10T11:18:57;77.12;;;21.45;;
32906;SDS011;19259;51.590;5.320;2022-12-10T11:21:30;72.00;;;20.52;;
32906;SDS011;19259;51.590;5.320;2022-12-10T11:24:00;69.97;;;21.97;;
32906;SDS011;19259;51.590;5.320;2022-12-10T11:26:35;74.47;;;21.87;;
32906;SDS011;19259;51.590;5.320;2022-12-10T11:40:30;77.30;;;23.35;;
32906;SDS011;19259;51.590;5.320;2022-12-10T11:46:07;71.22;;;21.12;;
32906;SDS011;19259;51.590;5.320;2022-12-10T11:51:29;76.47;;;20.00;;
32906;SDS011;19259;51.590;5.320;2022-12-10T11:56:49;79.95;;;22.62;;
32906;SDS011;19259;51.590;5.320;2022-12-10T11:59:33;66.50;;;21.65;;
32906;SDS011;19259;51.590;5.320;2022-12-10T12:05:17;74.00;;;20.85;;
32906;SDS011;19259;51.590;5.320;2022-12-10T12:08:05;74.15;;;21.27;;
32906;SDS011;19259;51.590;5.320;2022-12-10T12:13:45;77.92;;;21.85;;
32906;SDS011;19259;51.590;5.320;2022-12-10T12:19:10;70.50;;;21.15;;
32906;SDS011;19259;51.590;5.320;2022-12-10T12:21:38;80.38;;;20.57;;
32906;SDS011;19259;51.590;5.320;2022-12-10T12:24:20;66.40;;;20.17;;
32906;SDS011;19259;51.590;5.320;2022-12-10T12:26:50;74.53;;;20.35;;
32906;SDS011;19259;51.590;5.320;2022-12-10T12:29:25;74.82;;;20.40;;
32906;SDS011;19259;51.590;5.320;2022-12-10T12:31:57;77.65;;;20.82;;
32906;SDS011;19259;51.590;5.320;2022-12-10T12:37:24;73.02;;;19.48;;
32906;SDS011;19259;51.590;5.320;2022-12-10T12:40:13;81.53;;;22.62;;
32906;SDS011;19259;51.590;5.320;2022-12-10T12:45:31;70.22;;;21.95;;
32906;SDS011;19259;51.590;5.320;2022-12-10T12:51:05;72.12;;;20.72;;
32906;SDS011;19259;51.590;5.320;2022-12-10T12:53:38;75.15;;;21.62;;
32906;SDS011;19259;51.590;5.320;2022-12-10T12:56:53;79.58;;;21.95;;
32906;SDS011;19259;51.590;5.320;2022-12-10T13:01:51;73.67;;;22.52;;
32906;SDS011;19259;51.590;5.320;2022-12-10T13:04:22;83.87;;;25.43;;
32906;SDS011;19259;51.590;5.320;2022-12-10T13:09:49;69.77;;;20.00;;
32906;SDS011;19259;51.590;5.320;2022-12-10T13:12:26;64.82;;;19.95;;
32906;SDS011;19259;51.590;5.320;2022-12-10T13:18:00;67.45;;;19.62;;
32906;SDS011;19259;51.590;5.320;2022-12-10T13:23:01;79.65;;;20.60;;
32906;SDS011;19259;51.590;5.320;2022-12-10T13:25:39;75.85;;;22.48;;
32906;SDS011;19259;51.590;5.320;2022-12-10T13:31:37;78.60;;;21.50;;
32906;SDS011;19259;51.590;5.320;2022-12-10T13:36:21;63.58;;;16.77;;
32906;SDS011;19259;51.590;5.320;2022-12-10T13:41:33;82.33;;;23.92;;
32906;SDS011;19259;51.590;5.320;2022-12-10T13:44:35;82.20;;;21.02;;
32906;SDS011;19259;51.590;5.320;2022-12-10T13:50:04;73.10;;;20.50;;
32906;SDS011;19259;51.590;5.320;2022-12-10T13:52:57;86.78;;;20.88;;
32906;SDS011;19259;51.590;5.320;2022-12-10T13:55:53;79.42;;;21.35;;
32906;SDS011;19259;51.590;5.320;2022-12-10T14:01:12;76.77;;;22.32;;
32906;SDS011;19259;51.590;5.320;2022-12-10T14:06:34;99.25;;;32.48;;
32906;SDS011;19259;51.590;5.320;2022-12-10T14:11:57;93.55;;;27.60;;
32906;SDS011;19259;51.590;5.320;2022-12-10T14:14:30;95.17;;;24.32;;
32906;SDS011;19259;51.590;5.320;2022-12-10T14:17:04;80.35;;;20.32;;
32906;SDS011;19259;51.590;5.320;2022-12-10T14:22:05;90.32;;;22.90;;
32906;SDS011;19259;51.590;5.320;2022-12-10T14:24:45;86.95;;;22.20;;
32906;SDS011;19259;51.590;5.320;2022-12-10T14:27:20;92.37;;;22.67;;
32906;SDS011;19259;51.590;5.320;2022-12-10T14:29:59;78.80;;;22.45;;
32906;SDS011;19259;51.590;5.320;2022-12-10T14:32:35;90.50;;;23.52;;
32906;SDS011;19259;51.590;5.320;2022-12-10T14:35:05;83.82;;;24.18;;
32906;SDS011;19259;51.590;5.320;2022-12-10T14:37:42;97.27;;;24.50;;
32906;SDS011;19259;51.590;5.320;2022-12-10T14:40:25;84.45;;;24.00;;
32906;SDS011;19259;51.590;5.320;2022-12-10T14:42:56;84.77;;;24.02;;
32906;SDS011;19259;51.590;5.320;2022-12-10T14:47:56;82.78;;;22.02;;
32906;SDS011;19259;51.590;5.320;2022-12-10T14:50:29;89.07;;;23.65;;
32906;SDS011;19259;51.590;5.320;2022-12-10T14:52:55;85.80;;;23.55;;
32906;SDS011;19259;51.590;5.320;2022-12-10T14:55:23;94.03;;;23.45;;
32906;SDS011;19259;51.590;5.320;2022-12-10T14:57:52;79.77;;;23.75;;
32906;SDS011;19259;51.590;5.320;2022-12-10T15:00:28;94.72;;;24.45;;
32906;SDS011;19259;51.590;5.320;2022-12-10T15:03:07;89.35;;;22.58;;
32906;SDS011;19259;51.590;5.320;2022-12-10T15:05:37;77.78;;;21.62;;
32906;SDS011;19259;51.590;5.320;2022-12-10T15:08:07;86.78;;;23.52;;
32906;SDS011;19259;51.590;5.320;2022-12-10T15:10:44;84.20;;;23.40;;
32906;SDS011;19259;51.590;5.320;2022-12-10T15:13:23;85.28;;;23.12;;
32906;SDS011;19259;51.590;5.320;2022-12-10T15:18:17;79.42;;;21.57;;
32906;SDS011;19259;51.590;5.320;2022-12-10T15:20:47;87.70;;;22.35;;
32906;SDS011;19259;51.590;5.320;2022-12-10T15:28:34;83.45;;;23.12;;
32906;SDS011;19259;51.590;5.320;2022-12-10T15:33:50;103.38;;;27.37;;
32906;SDS011;19259;51.590;5.320;2022-12-10T15:36:34;110.95;;;27.25;;
32906;SDS011;19259;51.590;5.320;2022-12-10T15:39:12;98.03;;;24.72;;
32906;SDS011;19259;51.590;5.320;2022-12-10T15:46:47;108.67;;;27.65;;
32906;SDS011;19259;51.590;5.320;2022-12-10T15:49:19;93.90;;;27.33;;
32906;SDS011;19259;51.590;5.320;2022-12-10T15:51:47;99.05;;;24.32;;
32906;SDS011;19259;51.590;5.320;2022-12-10T15:54:19;113.45;;;28.07;;
32906;SDS011;19259;51.590;5.320;2022-12-10T15:56:51;104.90;;;27.15;;
32906;SDS011;19259;51.590;5.320;2022-12-10T15:59:18;101.60;;;26.75;;
32906;SDS011;19259;51.590;5.320;2022-12-10T16:01:46;111.95;;;28.40;;
32906;SDS011;19259;51.590;5.320;2022-12-10T16:04:14;99.05;;;26.25;;
32906;SDS011;19259;51.590;5.320;2022-12-10T16:06:42;88.65;;;26.33;;
32906;SDS011;19259;51.590;5.320;2022-12-10T16:09:09;102.20;;;25.68;;
32906;SDS011;19259;51.590;5.320;2022-12-10T16:11:37;119.57;;;27.22;;
32906;SDS011;19259;51.590;5.320;2022-12-10T16:14:08;91.37;;;24.32;;
32906;SDS011;19259;51.590;5.320;2022-12-10T16:16:37;98.72;;;24.80;;
32906;SDS011;19259;51.590;5.320;2022-12-10T16:19:08;111.03;;;27.13;;
32906;SDS011;19259;51.590;5.320;2022-12-10T16:21:37;106.67;;;27.22;;
32906;SDS011;19259;51.590;5.320;2022-12-10T16:24:06;101.15;;;27.37;;
32906;SDS011;19259;51.590;5.320;2022-12-10T16:26:34;107.83;;;27.87;;
32906;SDS011;19259;51.590;5.320;2022-12-10T16:29:02;107.70;;;27.32;;
32906;SDS011;19259;51.590;5.320;2022-12-10T16:31:29;102.67;;;25.57;;
32906;SDS011;19259;51.590;5.320;2022-12-10T16:33:57;107.95;;;29.10;;
32906;SDS011;19259;51.590;5.320;2022-12-10T16:36:24;111.83;;;28.45;;
32906;SDS011;19259;51.590;5.320;2022-12-10T16:38:52;106.65;;;27.73;;
32906;SDS011;19259;51.590;5.320;2022-12-10T16:41:23;108.47;;;27.65;;
32906;SDS011;19259;51.590;5.320;2022-12-10T16:43:51;104.00;;;26.42;;
32906;SDS011;19259;51.590;5.320;2022-12-10T16:46:18;120.17;;;29.42;;
32906;SDS011;19259;51.590;5.320;2022-12-10T16:48:46;98.70;;;26.93;;